x

West Superior - 30nm Ne Of Outer Island, Wi (45006) Wave Buoy

11:50am - Thu 26th May 2016 All times are CDT. -5 hours from GMT.

  • Sig Wave height 1.0ft
  • Swell Direction
  • Peak Period 3s
  • Average Period 3s
  • Wind
    7mph
  • Sea Temp 38°f
  • Air Temp 40°f
  • Sea Pressure 1010.7mb
  • West Superior - 30nm Ne Of Outer Island, Wi
  • West Superior - 30nm Ne Of Outer Island, Wi

More Historic Weather Station data

Upgrade to MSW Pro to gain access to the past 30 days of data for over 8000 Wavebouys and Weather Stations around the globe.

Join Pro

Comparision Forecast

View Surf forecast
   
Thu 05/26 11:50am 1ft 3s 3s 7
mph
1010.7mb 38f 40f
10:50am 1ft 3s 3s 7 9 mph 1010.2mb 38f 41f
9:50am 1ft 3s 3s 9
mph
1009.8mb 38f 41f
8:50am 1.3ft 3s 3s 9 11 mph 1010.1mb 38f 41f
7:50am 1.3ft 4s 3s 7
mph
1010.6mb 38f 41f
6:50am 1.3ft 4s 3s 7 9 mph 1010.7mb 38f 41f
5:50am 1.6ft 4s 3s 11 13 mph 1009.7mb 38f 40f
4:50am 1.6ft 4s 3s 7 9 mph 1011.1mb 38f 41f
3:50am 2ft 4s 4s 11
mph
1010.8mb 38f 40f
2:50am 2.5ft 4s 4s 11 13 mph 1010.2mb 38f 40f
1:50am 2ft 4s 4s 11 13 mph 1010.8mb 38f 42f
12:50am 2.5ft 5s 4s 11 13 mph 1011.4mb 38f 41f
Wed 05/25 11:50pm 2.5ft 5s 4s 13 16 mph 1011.9mb 38f 40f
10:50pm 2.5ft 5s 4s 16 18 mph 1013.8mb 38f 40f
9:50pm 2.5ft 5s 4s 11 13 mph 1014.8mb 38f 40f
8:50pm 3ft 5s 4s 16 18 mph 1013.9mb 38f 40f
7:50pm 3.5ft 5s 4s 18 20 mph 1013.5mb 38f 41f
6:50pm 3.5ft 5s 4s 18 22 mph 1014.1mb 38f 41f
5:50pm 3.5ft 5s 4s 20 25 mph 1014.2mb 38f 41f
4:50pm 3.5ft 4s 4s 20 25 mph 1014.5mb 38f 41f
3:50pm 3ft 4s 4s 22 25 mph 1015.3mb 38f 41f
2:50pm 2.5ft 4s 4s 20 22 mph 1016.3mb 38f 40f
1:50pm 2.5ft 4s 3s 18 20 mph 1017.4mb 38f 40f
12:50pm 2.5ft 4s 3s 18 22 mph 1018.2mb 38f 39f
11:50am 1.6ft 3s 3s 18 20 mph 1018.6mb 38f 40f
10:50am 1.3ft 3s 3s 18 20 mph 1018.5mb 38f 40f
9:50am 1.6ft 3s 3s 16 18 mph 1019.1mb 38f 40f
8:50am 1.3ft 3s 3s 13 16 mph 1019.3mb 38f 40f
7:50am 1ft 3s 3s 13 16 mph 1018.5mb 38f 40f
6:50am 1ft 3s 3s 16 18 mph 1018.1mb 38f 40f
5:50am 1ft 4s 3s 11
mph
1018.8mb 38f 40f
4:50am 1ft 4s 3s 9
mph
1018.5mb 38f 40f
3:50am 1.3ft 4s 3s 9
mph
1018.3mb 38f 39f
2:50am 1.3ft 4s 3s 7 9 mph 1017.8mb 38f 39f
1:50am 1.6ft 4s 4s 9
mph
1017.3mb 38f 40f
12:50am 2ft 4s 3s 9
mph
1017.4mb 38f 42f
Tue 05/24 11:50pm 2ft 4s 4s 13 16 mph 1018.4mb 38f 42f
10:50pm 2ft 4s 3s 13 16 mph 1017mb 38f 41f
9:50pm 1.6ft 3s 3s 16 18 mph 1016.4mb 38f 42f
8:50pm 1.3ft 4s 3s 18 20 mph 1015.7mb 38f 42f
7:50pm 1.3ft 3s 3s 13 16 mph 1015.4mb 38f 43f
6:50pm 1.3ft 3s 3s 13 16 mph 1015.2mb 38f 42f
5:50pm 1ft 2s 3s 11 13 mph 1013.8mb 38f 44f
4:50pm 0.3ft  -  3s 13 16 mph 1013.8mb 38f 42f
3:50pm 0.3ft  -  3s 16
mph
1013.7mb 38f 43f
2:50pm 0.3ft  -  4s 9
mph
1013.9mb 38f 43f
1:50pm 0.3ft  -  3s 2 4 mph 1013.4mb 38f 47f
12:50pm 0.3ft  -  3s 11 13 mph 1011.4mb 38f 49f
11:50am 0.3ft  -  3s 13 16 mph 1011.1mb 38f 46f
10:50am 0.3ft  -  3s 4
mph
1012.6mb 38f 54f
9:50am 0.7ft  -  3s 4 7 mph 1011.9mb 38f 47f
8:50am 0.7ft  -  3s 9
mph
1011.4mb 38f 44f
7:50am 0.7ft  -  3s  -  2 mph 1011.6mb 38f 47f
6:50am 1ft 3s 3s 4 7 mph 1010.6mb 38f 50f
5:50am 0.7ft  -  3s 9
mph
1010mb 38f 48f
4:50am 0.7ft  -  3s 4
mph
1010.1mb 38f 47f
3:50am 0.7ft  -  3s 9
mph
1010.3mb 38f 45f
2:50am 0.7ft  -  3s 13 16 mph 1009.5mb 38f 44f
1:50am 0.7ft  -  3s 4 7 mph 1009.3mb 38f 54f
12:50am 0.7ft  -  3s 13 18 mph 1009.1mb 38f 52f
Mon 05/23 11:50pm 0.7ft  -  3s 2 4 mph 1009mb 38f 47f
10:50pm 1ft 3s 3s 7 9 mph 1009mb 38f 50f
9:50pm 1ft 4s 3s 13
mph
1009.5mb 38f 50f
8:50pm 1.3ft 4s 3s 13
mph
1008.6mb 38f 51f
7:50pm 1.3ft 4s 3s 18 22 mph 1009mb 38f 53f
5:50pm 1ft 4s 3s 4
mph
1006.3mb 38f 55f
4:50pm 1ft 4s 3s 7
mph
1006.6mb 38f 49f
3:50pm 0.7ft  -  3s 7
mph
1006.9mb 38f 47f
2:50pm 0.7ft  -  3s 4
mph
1006.4mb 38f 52f
1:50pm 0.7ft  -  3s 4
mph
1006.8mb 38f 50f
12:50pm 1ft 3s 3s 9
mph
1007.2mb 38f 51f
11:50am 1.3ft 3s 3s 11
mph
1007.6mb 38f 48f
10:50am 1.3ft 3s 3s 13 16 mph 1007.5mb 38f 49f
9:50am 1.3ft 3s 3s 16 18 mph 1008.6mb 38f 49f
8:50am 1ft 3s 3s 13 16 mph 1009.8mb 38f 46f
7:50am 0.7ft  -  3s 16
mph
1010.4mb 38f 47f
6:50am 0.3ft  -  3s 13
mph
1010.6mb 38f 48f
5:50am 0.3ft  -   -  11 13 mph 1010.9mb 38f 46f
4:50am 0.3ft  -  3s 11
mph
1011.4mb 38f 46f
3:50am  -   -  3s 7
mph
1011.1mb 38f 46f
2:50am 0.3ft  -  3s 4 7 mph 1011.1mb 38f 48f
1:50am 0.3ft  -  3s 7 9 mph 1011.3mb 38f 46f
12:50am  -   -  3s 7
mph
1011.3mb 38f 47f
Sun 05/22 11:50pm  -   -  3s 7
mph
1011.6mb 38f 51f
10:50pm  -   -  3s 4 9 mph 1011.9mb 38f 51f
9:50pm  -   -   -  4 7 mph 1012.3mb 38f 43f
8:50pm  -   -  3s 7 9 mph 1012.4mb 38f 42f
7:50pm  -   -  3s 4 7 mph 1012.5mb 38f 45f
6:50pm  -   -  3s 7 9 mph 1013mb 38f 46f